createdAt,value
2018-03-01T00:00:11.706Z,100407.88
2018-03-01T00:01:14.197Z,100399.81
2018-03-01T00:02:16.682Z,100402.71
2018-03-01T00:03:19.194Z,100405.61
2018-03-01T00:04:21.677Z,100392.47
2018-03-01T00:05:24.164Z,100396.33
2018-03-01T00:06:26.648Z,100392.78
2018-03-01T00:07:29.160Z,100390.77
2018-03-01T00:08:31.635Z,100392.29
2018-03-01T00:09:34.129Z,100394.94
2018-03-01T00:10:36.607Z,100392.36
2018-03-01T00:11:39.094Z,100387.72
2018-03-01T00:12:41.585Z,100386.51
2018-03-01T00:13:44.223Z,100383.52
2018-03-01T00:14:46.699Z,100389.87
2018-03-01T00:15:49.234Z,100402.75
2018-03-01T00:16:51.769Z,100400.73
2018-03-01T00:17:54.309Z,100394.60
2018-03-01T00:18:56.789Z,100402.58
2018-03-01T00:19:59.264Z,100394.52
2018-03-01T00:21:01.740Z,100391.53
2018-03-01T00:22:04.235Z,100392.09
2018-03-01T00:23:06.754Z,100393.20
2018-03-01T00:24:09.245Z,100398.84
2018-03-01T00:25:11.727Z,100387.64
2018-03-01T00:26:14.203Z,100392.83
2018-03-01T00:27:16.671Z,100391.19
2018-03-01T00:28:19.139Z,100383.94
2018-03-01T00:29:21.616Z,100373.14
2018-03-01T00:30:24.102Z,100385.22
2018-03-01T00:31:26.575Z,100387.70
2018-03-01T00:32:29.055Z,100378.27
2018-03-01T00:33:31.527Z,100378.99
2018-03-01T00:34:33.999Z,100371.34
2018-03-01T00:35:36.475Z,100374.39
2018-03-01T00:36:38.946Z,100371.25
2018-03-01T00:37:41.419Z,100368.26
2018-03-01T00:38:43.920Z,100361.73
2018-03-01T00:39:46.409Z,100362.84
2018-03-01T00:40:48.886Z,100362.75
2018-03-01T00:41:51.381Z,100363.97
2018-03-01T00:42:53.854Z,100364.12
2018-03-01T00:43:56.328Z,100369.47
2018-03-01T00:44:58.813Z,100363.03
2018-03-01T00:46:01.288Z,100361.98
2018-03-01T00:47:03.773Z,100362.69
2018-03-01T00:48:06.256Z,100358.59
2018-03-01T00:49:09.496Z,100356.16
2018-03-01T00:50:11.963Z,100361.79
2018-03-01T00:51:14.446Z,100352.92
2018-03-01T00:52:16.921Z,100355.26
2018-03-01T00:53:19.394Z,100354.20
2018-03-01T00:54:21.863Z,100357.50
2018-03-01T00:55:24.350Z,100357.09
2018-03-01T00:56:26.825Z,100360.80
2018-03-01T00:57:29.310Z,100353.30
2018-03-01T00:58:31.782Z,100355.38
2018-03-01T00:59:34.251Z,100356.91
2018-03-01T01:00:36.723Z,100364.31
2018-03-01T01:01:39.221Z,100361.98
2018-03-01T01:02:41.687Z,100359.64
2018-03-01T01:03:44.159Z,100364.56
2018-03-01T01:04:46.643Z,100360.05
2018-03-01T01:05:49.165Z,100369.06
2018-03-01T01:06:51.644Z,100360.05
2018-03-01T01:07:54.119Z,100365.92
2018-03-01T01:08:56.591Z,100366.33
2018-03-01T01:09:59.063Z,100366.89
2018-03-01T01:11:01.527Z,100365.52
2018-03-01T01:12:04.014Z,100371.16
2018-03-01T01:13:06.501Z,100369.37
2018-03-01T01:14:08.990Z,100374.85
2018-03-01T01:15:11.477Z,100381.45
2018-03-01T01:16:13.951Z,100372.95
2018-03-01T01:17:16.419Z,100373.92
2018-03-01T01:18:18.887Z,100367.08
2018-03-01T01:19:21.355Z,100366.27
2018-03-01T01:20:23.841Z,100361.76
2018-03-01T01:21:26.333Z,100370.53
2018-03-01T01:22:28.834Z,100367.95
2018-03-01T01:23:31.304Z,100373.98
2018-03-01T01:24:33.779Z,100366.73
2018-03-01T01:25:36.274Z,100364.96
2018-03-01T01:26:38.744Z,100359.08
2018-03-01T01:27:41.238Z,100362.94
2018-03-01T01:28:43.711Z,100356.41
2018-03-01T01:29:46.183Z,100352.86
2018-03-01T01:30:48.798Z,100360.27
2018-03-01T01:31:51.289Z,100350.44
2018-03-01T01:32:53.768Z,100362.34
2018-03-01T01:33:56.248Z,100349.78
2018-03-01T01:34:58.719Z,100348.02
2018-03-01T01:36:01.209Z,100349.69
2018-03-01T01:37:03.695Z,100342.84
2018-03-01T01:38:06.171Z,100337.38
2018-03-01T01:39:08.658Z,100342.75
2018-03-01T01:40:11.153Z,100331.56
2018-03-01T01:41:13.638Z,100334.98
2018-03-01T01:42:16.111Z,100344.70
2018-03-01T01:43:18.605Z,100338.73
2018-03-01T01:44:21.085Z,100337.12
2018-03-01T01:45:23.561Z,100338.23
2018-03-01T01:46:26.036Z,100336.63
2018-03-01T01:47:28.526Z,100328.57
2018-03-01T01:48:31.011Z,100336.53
2018-03-01T01:49:33.478Z,100331.21
2018-03-01T01:50:47.881Z,100330.96
2018-03-01T01:51:50.362Z,100326.61
2018-03-01T01:52:52.853Z,100324.03
2018-03-01T01:53:55.344Z,100314.05
2018-03-01T01:54:57.824Z,100323.88
2018-03-01T01:56:00.341Z,100321.70
2018-03-01T01:57:02.821Z,100322.25
2018-03-01T01:58:05.310Z,100313.23
2018-03-01T01:59:07.783Z,100308.33
2018-03-01T02:00:10.269Z,100301.08
2018-03-01T02:01:12.792Z,100296.73
2018-03-01T02:02:15.269Z,100302.33
2018-03-01T02:03:17.758Z,100297.41
2018-03-01T02:04:20.227Z,100299.34
2018-03-01T02:05:22.728Z,100290.08
2018-03-01T02:06:25.227Z,100299.80
2018-03-01T02:07:27.707Z,100285.73
2018-03-01T02:08:30.193Z,100281.78
2018-03-01T02:09:32.694Z,100293.68
2018-03-01T02:10:35.184Z,100282.90
2018-03-01T02:11:37.698Z,100278.55
2018-03-01T02:12:40.188Z,100286.50
2018-03-01T02:13:42.659Z,100289.64
2018-03-01T02:14:45.141Z,100284.88
2018-03-01T02:15:47.642Z,100287.77
2018-03-01T02:16:50.143Z,100281.49
2018-03-01T02:17:52.646Z,100277.55
2018-03-01T02:18:55.121Z,100275.93
2018-03-01T02:19:57.605Z,100279.22
2018-03-01T02:21:00.092Z,100277.45
2018-03-01T02:22:02.602Z,100270.77
2018-03-01T02:23:05.075Z,100266.42
2018-03-01T02:24:07.563Z,100265.17
2018-03-01T02:25:10.051Z,100265.73
2018-03-01T02:26:12.526Z,100267.10
2018-03-01T02:27:15.023Z,100252.06
2018-03-01T02:28:17.507Z,100251.91
2018-03-01T02:29:19.993Z,100249.17
2018-03-01T02:30:29.174Z,100239.07
2018-03-01T02:31:31.666Z,100244.23
2018-03-01T02:32:34.180Z,100243.27
2018-03-01T02:33:36.642Z,100237.64
2018-03-01T02:34:39.118Z,100231.36
2018-03-01T02:35:41.608Z,100227.02
2018-03-01T02:36:44.088Z,100227.02
2018-03-01T02:37:46.586Z,100235.50
2018-03-01T02:38:49.068Z,100225.27
2018-03-01T02:39:51.539Z,100227.51
2018-03-01T02:40:54.030Z,100223.97
2018-03-01T02:41:56.508Z,100218.41
2018-03-01T02:42:58.999Z,100220.64
2018-03-01T02:44:01.496Z,100219.98
2018-03-01T02:45:03.970Z,100220.55
2018-03-01T02:46:06.444Z,100209.52
2018-03-01T02:47:08.940Z,100215.70
2018-03-01T02:48:11.453Z,100205.32
2018-03-01T02:49:13.929Z,100199.33
2018-03-01T02:50:16.425Z,100192.64
2018-03-01T02:51:18.915Z,100190.22
2018-03-01T02:52:21.391Z,100191.19
2018-03-01T02:53:23.904Z,100183.30
2018-03-01T02:54:26.406Z,100181.12
2018-03-01T02:55:28.906Z,100181.67
2018-03-01T02:56:31.397Z,100172.42
2018-03-01T02:57:33.881Z,100175.71
2018-03-01T02:58:36.380Z,100171.77
2018-03-01T02:59:38.863Z,100167.82
2018-03-01T03:00:41.359Z,100165.80
2018-03-01T03:01:43.863Z,100174.16
2018-03-01T03:02:46.357Z,100168.29
2018-03-01T03:03:48.847Z,100159.68
2018-03-01T03:04:51.335Z,100157.51
2018-03-01T03:05:53.800Z,100154.77
2018-03-01T03:06:56.267Z,100153.56
2018-03-01T03:07:58.733Z,100148.66
2018-03-01T03:09:01.219Z,100146.48
2018-03-01T03:10:03.693Z,100150.18
2018-03-01T03:11:06.177Z,100146.23
2018-03-01T03:12:08.677Z,100150.05
2018-03-01T03:13:11.152Z,100145.15
2018-03-01T03:14:13.652Z,100149.40
2018-03-01T03:15:16.153Z,100157.60
2018-03-01T03:16:18.623Z,100157.20
2018-03-01T03:17:21.086Z,100154.19
2018-03-01T03:18:23.573Z,100148.47
2018-03-01T03:19:26.076Z,100155.30
2018-03-01T03:20:28.567Z,100154.65
2018-03-01T03:21:31.043Z,100151.67
2018-03-01T03:22:33.529Z,100150.30
2018-03-01T03:23:35.999Z,100149.89
2018-03-01T03:24:38.510Z,100146.52
2018-03-01T03:25:40.998Z,100139.68
2018-03-01T03:26:43.499Z,100139.03
2018-03-01T03:27:45.990Z,100145.20
2018-03-01T03:28:48.474Z,100142.22
2018-03-01T03:29:50.982Z,100141.42
2018-03-01T03:30:53.470Z,100141.57
2018-03-01T03:31:55.958Z,100140.92
2018-03-01T03:32:58.423Z,100132.44
2018-03-01T03:34:00.910Z,100134.37
2018-03-01T03:35:03.425Z,100131.08
2018-03-01T03:36:05.895Z,100126.58
2018-03-01T03:37:08.392Z,100127.53
2018-03-01T03:38:10.873Z,100119.65
2018-03-01T03:39:13.359Z,100119.25
2018-03-01T03:40:15.865Z,100121.17
2018-03-01T03:41:18.338Z,100119.65
2018-03-01T03:42:20.809Z,100113.53
2018-03-01T03:43:23.299Z,100114.49
2018-03-01T03:44:25.767Z,100115.86
2018-03-01T03:45:28.269Z,100115.45
2018-03-01T03:46:30.763Z,100115.45
2018-03-01T03:47:33.244Z,100120.11
2018-03-01T03:48:35.729Z,100118.34
2018-03-01T03:49:38.213Z,100121.23
2018-03-01T03:50:40.718Z,100112.63
2018-03-01T03:51:43.194Z,100118.25
2018-03-01T03:52:45.671Z,100115.92
2018-03-01T03:53:48.156Z,100120.92
2018-03-01T03:54:50.645Z,100120.70
2018-03-01T03:55:53.150Z,100112.10
2018-03-01T03:56:55.634Z,100123.00
2018-03-01T03:57:58.103Z,100120.79
2018-03-01T03:59:00.585Z,100119.38
2018-03-01T04:00:03.056Z,100119.22
2018-03-01T04:01:05.561Z,100127.85
2018-03-01T04:02:08.036Z,100123.77
2018-03-01T04:03:10.529Z,100125.27
2018-03-01T04:04:13.017Z,100119.16
2018-03-01T04:05:15.507Z,100114.19
2018-03-01T04:06:18.025Z,100109.92
2018-03-01T04:07:20.509Z,100112.91
2018-03-01T04:08:23.039Z,100117.41
2018-03-01T04:09:25.543Z,100113.25
2018-03-01T04:10:28.017Z,100111.31
2018-03-01T04:11:30.520Z,100119.77
2018-03-01T04:12:33.014Z,100111.72
2018-03-01T04:13:35.483Z,100113.25
2018-03-01T04:14:37.954Z,100112.59
2018-03-01T04:15:40.432Z,100109.86
2018-03-01T04:16:42.923Z,100106.88
2018-03-01T04:17:45.398Z,100109.92
2018-03-01T04:18:47.866Z,100114.75
2018-03-01T04:19:50.354Z,100119.56
2018-03-01T04:20:52.838Z,100122.62
2018-03-01T04:21:55.327Z,100123.33
2018-03-01T04:22:57.813Z,100124.86
2018-03-01T04:24:00.278Z,100129.68
2018-03-01T04:25:02.766Z,100127.75
2018-03-01T04:26:05.240Z,100129.36
2018-03-01T04:27:07.750Z,100130.73
2018-03-01T04:28:10.234Z,100125.27
2018-03-01T04:29:12.709Z,100124.05
2018-03-01T04:30:15.201Z,100119.83
2018-03-01T04:31:17.686Z,100120.11
2018-03-01T04:32:20.192Z,100124.73
2018-03-01T04:33:22.680Z,100122.97
2018-03-01T04:34:25.169Z,100115.08
2018-03-01T04:35:27.638Z,100119.17
2018-03-01T04:36:30.112Z,100114.83
2018-03-01T04:37:32.603Z,100113.46
2018-03-01T04:38:35.808Z,100111.44
2018-03-01T04:39:38.298Z,100113.12
2018-03-01T04:40:40.772Z,100096.22
2018-03-01T04:41:43.269Z,100104.73
2018-03-01T04:42:45.759Z,100090.02
2018-03-01T04:43:48.242Z,100085.02
2018-03-01T04:44:51.634Z,100077.13
2018-03-01T04:45:54.126Z,100075.08
2018-03-01T04:46:56.606Z,100068.16
2018-03-01T04:47:59.091Z,100066.14
2018-03-01T04:49:01.555Z,100060.98
2018-03-01T04:50:04.027Z,100070.30
2018-03-01T04:51:06.500Z,100074.31
2018-03-01T04:52:08.985Z,100072.70
2018-03-01T04:53:11.471Z,100075.91
2018-03-01T04:54:13.943Z,100075.01
2018-03-01T04:55:16.429Z,100069.27
2018-03-01T04:56:18.917Z,100073.83
2018-03-01T04:57:21.401Z,100070.29
2018-03-01T04:58:23.894Z,100071.22
2018-03-01T04:59:26.362Z,100067.77
2018-03-01T05:00:28.859Z,100074.25
2018-03-01T05:01:31.350Z,100076.09
2018-03-01T05:02:33.837Z,100068.27
2018-03-01T05:03:36.327Z,100069.15
2018-03-01T05:04:38.810Z,100067.76
2018-03-01T05:05:41.318Z,100062.39
2018-03-01T05:06:43.801Z,100064.83
2018-03-01T05:07:46.287Z,100067.61
2018-03-01T05:08:48.778Z,100068.98
2018-03-01T05:09:51.256Z,100075.35
2018-03-01T05:10:53.750Z,100075.04
2018-03-01T05:11:56.237Z,100074.56
2018-03-01T05:12:58.741Z,100076.58
2018-03-01T05:14:01.249Z,100066.31
2018-03-01T05:15:03.731Z,100081.36
2018-03-01T05:16:06.221Z,100075.17
2018-03-01T05:17:08.723Z,100073.28
2018-03-01T05:18:11.205Z,100077.30
2018-03-01T05:19:13.713Z,100086.47
2018-03-01T05:20:16.182Z,100087.91
2018-03-01T05:21:18.669Z,100085.49
2018-03-01T05:22:21.161Z,100090.56
2018-03-01T05:23:23.639Z,100089.02
2018-03-01T05:24:26.119Z,100089.74
2018-03-01T05:25:28.610Z,100086.92
2018-03-01T05:26:31.106Z,100090.09
2018-03-01T05:27:33.579Z,100082.92
2018-03-01T05:28:36.051Z,100091.85
2018-03-01T05:29:38.536Z,100092.33
2018-03-01T05:30:41.007Z,100096.25
2018-03-01T05:31:43.492Z,100102.60
2018-03-01T05:32:45.963Z,100098.81
2018-03-01T05:33:48.431Z,100101.98
2018-03-01T05:34:51.176Z,100096.03
2018-03-01T05:35:53.668Z,100097.86
2018-03-01T05:36:56.165Z,100096.97
2018-03-01T05:37:58.677Z,100091.97
2018-03-01T05:39:01.161Z,100095.18
2018-03-01T05:40:03.660Z,100082.91
2018-03-01T05:41:06.149Z,100093.20
2018-03-01T05:42:08.618Z,100090.38
2018-03-01T05:43:11.097Z,100096.00
2018-03-01T05:44:13.567Z,100097.92
2018-03-01T05:45:16.070Z,100089.16
2018-03-01T05:46:18.555Z,100096.80
2018-03-01T05:47:21.042Z,100086.52
2018-03-01T05:48:23.519Z,100088.77
2018-03-01T05:49:26.004Z,100089.27
2018-03-01T05:50:28.499Z,100084.67
2018-03-01T05:51:30.986Z,100083.49
2018-03-01T05:52:33.468Z,100084.09
2018-03-01T05:53:35.969Z,100076.47
2018-03-01T05:54:38.463Z,100072.78
2018-03-01T05:55:40.972Z,100077.05
2018-03-01T05:56:43.495Z,100063.45
2018-03-01T05:57:45.980Z,100065.49
2018-03-01T05:58:48.447Z,100065.73
2018-03-01T05:59:50.921Z,100067.51
2018-03-01T06:00:53.438Z,100058.09
2018-03-01T06:01:55.908Z,100065.33
2018-03-01T06:02:58.401Z,100060.30
2018-03-01T06:04:00.901Z,100060.63
2018-03-01T06:05:03.379Z,100060.63
2018-03-01T06:06:05.867Z,100062.47
2018-03-01T06:07:08.339Z,100054.33
2018-03-01T06:08:10.829Z,100052.88
2018-03-01T06:09:13.313Z,100052.80
2018-03-01T06:10:15.788Z,100056.66
2018-03-01T06:11:18.299Z,100056.57
2018-03-01T06:12:20.789Z,100060.00
2018-03-01T06:13:23.263Z,100062.41
2018-03-01T06:14:25.786Z,100065.62
2018-03-01T06:15:28.289Z,100073.66
2018-03-01T06:16:30.795Z,100073.73
2018-03-01T06:17:33.285Z,100079.27
2018-03-01T06:18:35.773Z,100085.99
2018-03-01T06:19:38.261Z,100075.03
2018-03-01T06:20:40.838Z,100072.21
2018-03-01T06:21:43.345Z,100073.25
2018-03-01T06:22:45.841Z,100071.95
2018-03-01T06:23:48.420Z,100066.95
2018-03-01T06:24:50.909Z,100070.63
2018-03-01T06:25:53.391Z,100073.72
2018-03-01T06:26:55.897Z,100072.47
2018-03-01T06:27:58.368Z,100076.80
2018-03-01T06:29:00.854Z,100070.44
2018-03-01T06:30:03.334Z,100066.07
2018-03-01T06:31:05.841Z,100074.05
2018-03-01T06:32:08.331Z,100073.00
2018-03-01T06:33:10.821Z,100064.01
2018-03-01T06:34:13.291Z,100066.50
2018-03-01T06:35:15.767Z,100065.72
2018-03-01T06:36:18.256Z,100063.72
2018-03-01T06:37:20.751Z,100069.75
2018-03-01T06:38:23.223Z,100070.09
2018-03-01T06:39:25.722Z,100071.62
2018-03-01T06:40:28.214Z,100067.98
2018-03-01T06:41:30.706Z,100064.66
2018-03-01T06:42:33.203Z,100065.80
2018-03-01T06:43:35.701Z,100061.52
2018-03-01T06:44:38.175Z,100053.62
2018-03-01T06:45:40.656Z,100055.06
2018-03-01T06:46:43.134Z,100053.40
2018-03-01T06:47:45.672Z,100049.85
2018-03-01T06:48:48.177Z,100052.57
2018-03-01T06:49:50.651Z,100045.05
2018-03-01T06:50:53.127Z,100052.09
2018-03-01T06:51:55.603Z,100054.72
2018-03-01T06:52:58.167Z,100047.13
2018-03-01T06:54:00.624Z,100047.83
2018-03-01T06:55:03.146Z,100050.48
2018-03-01T06:56:05.709Z,100050.08
2018-03-01T06:57:08.204Z,100043.22
2018-03-01T06:58:10.696Z,100042.01
2018-03-01T06:59:13.181Z,100043.00
2018-03-01T07:00:15.669Z,100046.72
2018-03-01T07:01:18.157Z,100055.02
2018-03-01T07:02:20.639Z,100044.60
2018-03-01T07:03:23.127Z,100050.33
2018-03-01T07:04:25.600Z,100044.93
2018-03-01T07:05:28.076Z,100048.09
2018-03-01T07:06:30.562Z,100043.95
2018-03-01T07:07:33.053Z,100029.94
2018-03-01T07:08:35.565Z,100034.68
2018-03-01T07:09:38.027Z,100034.32
2018-03-01T07:10:40.487Z,100032.28
2018-03-01T07:11:42.963Z,100039.28
2018-03-01T07:12:45.463Z,100032.25
2018-03-01T07:13:47.977Z,100036.84
2018-03-01T07:14:50.469Z,100043.17
2018-03-01T07:15:52.946Z,100029.20
2018-03-01T07:16:55.539Z,100042.73
2018-03-01T07:17:58.009Z,100036.27
2018-03-01T07:19:00.495Z,100045.90
2018-03-01T07:20:02.993Z,100034.05
2018-03-01T07:21:05.478Z,100035.11
2018-03-01T07:22:07.977Z,100019.51
2018-03-01T07:23:10.459Z,100032.23
2018-03-01T07:24:12.931Z,100024.92
2018-03-01T07:25:15.425Z,100033.86
2018-03-01T07:26:17.907Z,100029.52
2018-03-01T07:27:20.380Z,100021.11
2018-03-01T07:28:22.899Z,100029.38
2018-03-01T07:29:25.376Z,100034.30
2018-03-01T07:30:27.851Z,100028.08
2018-03-01T07:31:30.331Z,100031.66
2018-03-01T07:32:32.803Z,100036.75
2018-03-01T07:33:35.308Z,100033.36
2018-03-01T07:34:37.780Z,100033.47
2018-03-01T07:35:40.265Z,100031.69
2018-03-01T07:36:42.753Z,100034.03
2018-03-01T07:37:45.227Z,100032.35
2018-03-01T07:38:47.738Z,100032.69
2018-03-01T07:39:50.221Z,100034.13
2018-03-01T07:40:52.713Z,100021.27
2018-03-01T07:41:55.202Z,100021.17
2018-03-01T07:42:57.676Z,100005.06
2018-03-01T07:44:00.168Z,100005.70
2018-03-01T07:45:02.675Z,100010.98
2018-03-01T07:46:05.156Z,100012.72
2018-03-01T07:47:07.629Z,100011.58
2018-03-01T07:48:10.099Z,100009.00
2018-03-01T07:49:12.598Z,100000.30
2018-03-01T07:50:15.173Z,100000.23
2018-03-01T07:51:17.643Z,99988.94
2018-03-01T07:52:20.111Z,99997.05
2018-03-01T07:53:22.604Z,99997.05
2018-03-01T07:54:25.090Z,99994.00
2018-03-01T07:55:27.569Z,99981.98
2018-03-01T07:56:30.055Z,99989.11
2018-03-01T07:57:32.534Z,99980.78
2018-03-01T07:58:35.360Z,99980.81
2018-03-01T07:59:37.851Z,99976.19
2018-03-01T08:00:40.334Z,99979.09
2018-03-01T08:01:42.822Z,99983.22
2018-03-01T08:02:45.303Z,99971.36
2018-03-01T08:03:47.781Z,99972.47
2018-03-01T08:04:50.287Z,99982.64
2018-03-01T08:05:52.830Z,99972.48
2018-03-01T08:06:55.327Z,99983.66
2018-03-01T08:07:57.797Z,99966.64
2018-03-01T08:09:00.375Z,99970.39
2018-03-01T08:10:04.396Z,99975.23
2018-03-01T08:11:06.881Z,99965.56
2018-03-01T08:12:09.357Z,99963.69
2018-03-01T08:13:11.838Z,99962.80
2018-03-01T08:14:14.316Z,99966.89
2018-03-01T08:15:16.847Z,99968.83
2018-03-01T08:16:19.338Z,99976.61
2018-03-01T08:17:21.830Z,99974.30
2018-03-01T08:18:24.322Z,99972.34
2018-03-01T08:19:26.853Z,99962.63
2018-03-01T08:20:29.339Z,99969.29
2018-03-01T08:21:31.807Z,99970.86
2018-03-01T08:22:34.293Z,99961.55
2018-03-01T08:23:36.774Z,99962.69
2018-03-01T08:24:39.262Z,99951.56
2018-03-01T08:25:41.759Z,99955.59
2018-03-01T08:26:44.233Z,99952.61
2018-03-01T08:27:46.729Z,99952.28
2018-03-01T08:28:49.205Z,99953.11
2018-03-01T08:29:51.739Z,99948.77
2018-03-01T08:30:54.258Z,99943.57
2018-03-01T08:31:56.758Z,99944.31
2018-03-01T08:32:59.245Z,99939.34
2018-03-01T08:34:01.716Z,99940.27
2018-03-01T08:35:04.221Z,99941.87
2018-03-01T08:36:06.726Z,99937.54
2018-03-01T08:37:09.200Z,99934.45
2018-03-01T08:38:11.686Z,99938.06
2018-03-01T08:39:14.178Z,99939.00
2018-03-01T08:40:16.673Z,99940.92
2018-03-01T08:41:19.182Z,99938.05
2018-03-01T08:42:21.663Z,99938.64
2018-03-01T08:43:24.158Z,99934.73
2018-03-01T08:44:26.635Z,99940.53
2018-03-01T08:45:29.143Z,99942.67
2018-03-01T08:46:31.652Z,99939.25
2018-03-01T08:47:34.138Z,99942.89
2018-03-01T08:48:36.629Z,99937.80
2018-03-01T08:49:39.110Z,99939.95
2018-03-01T08:50:41.586Z,99939.89
2018-03-01T08:51:44.113Z,99934.83
2018-03-01T08:52:46.601Z,99928.87
2018-03-01T08:53:49.086Z,99932.41
2018-03-01T08:54:51.560Z,99929.97
2018-03-01T08:55:54.050Z,99923.30
2018-03-01T08:56:56.542Z,99920.44
2018-03-01T08:57:59.020Z,99916.42
2018-03-01T08:59:02.186Z,99907.67
2018-03-01T09:00:04.683Z,99905.97
2018-03-01T09:01:07.161Z,99898.00
2018-03-01T09:02:09.662Z,99892.19
2018-03-01T09:03:12.141Z,99887.25
2018-03-01T09:04:14.624Z,99887.27
2018-03-01T09:05:17.109Z,99892.27
2018-03-01T09:06:19.567Z,99891.11
2018-03-01T09:07:22.063Z,99890.34
2018-03-01T09:08:24.623Z,99891.72
2018-03-01T09:09:27.090Z,99884.22
2018-03-01T09:10:29.564Z,99881.00
2018-03-01T09:11:32.044Z,99873.27
2018-03-01T09:12:34.554Z,99869.80
2018-03-01T09:13:37.034Z,99872.88
2018-03-01T09:14:39.654Z,99865.94
2018-03-01T09:15:42.142Z,99867.78
2018-03-01T09:16:44.615Z,99865.57
2018-03-01T09:17:47.114Z,99869.80
2018-03-01T09:18:49.591Z,99860.86
2018-03-01T09:19:52.068Z,99853.93
2018-03-01T09:20:54.574Z,99850.08
2018-03-01T09:21:57.039Z,99854.37
2018-03-01T09:22:59.546Z,99849.31
2018-03-01T09:24:02.036Z,99848.14
2018-03-01T09:25:04.541Z,99849.84
2018-03-01T09:26:07.037Z,99846.70
2018-03-01T09:27:09.526Z,99844.53
2018-03-01T09:28:12.035Z,99845.73
2018-03-01T09:29:14.522Z,99841.45
2018-03-01T09:30:17.014Z,99843.72
2018-03-01T09:31:19.514Z,99842.72
2018-03-01T09:32:21.990Z,99844.85
2018-03-01T09:33:24.488Z,99837.62
2018-03-01T09:34:26.967Z,99839.22
2018-03-01T09:35:29.465Z,99839.91
2018-03-01T09:36:31.956Z,99841.52
2018-03-01T09:37:34.438Z,99836.66
2018-03-01T09:38:36.950Z,99837.06
2018-03-01T09:39:39.425Z,99833.28
2018-03-01T09:40:41.904Z,99832.82
2018-03-01T09:41:44.388Z,99829.03
2018-03-01T09:42:46.882Z,99830.69
2018-03-01T09:43:49.382Z,99831.59
2018-03-01T09:44:51.876Z,99818.67
2018-03-01T09:45:54.372Z,99827.92
2018-03-01T09:46:56.835Z,99827.62
2018-03-01T09:47:59.309Z,99824.08
2018-03-01T09:49:01.814Z,99823.14
2018-03-01T09:50:04.282Z,99823.65
2018-03-01T09:51:06.747Z,99822.64
2018-03-01T09:52:09.230Z,99823.05
2018-03-01T09:53:11.712Z,99825.42
2018-03-01T09:54:14.224Z,99821.51
2018-03-01T09:55:16.713Z,99814.65
2018-03-01T09:56:19.206Z,99819.20
2018-03-01T09:57:21.684Z,99815.91
2018-03-01T09:58:24.187Z,99809.89
2018-03-01T09:59:26.663Z,99799.80
2018-03-01T10:00:29.135Z,99803.84
2018-03-01T10:01:31.609Z,99801.03
2018-03-01T10:02:34.088Z,99804.08
2018-03-01T10:03:36.580Z,99798.30
2018-03-01T10:04:39.055Z,99799.80
2018-03-01T10:05:41.543Z,99791.77
2018-03-01T10:06:44.036Z,99797.85
2018-03-01T10:07:46.523Z,99797.45
2018-03-01T10:08:49.019Z,99787.00
2018-03-01T10:09:51.502Z,99805.14
2018-03-01T10:10:53.980Z,99797.47
2018-03-01T10:11:56.447Z,99798.45
2018-03-01T10:12:58.915Z,99796.44
2018-03-01T10:14:01.417Z,99797.41
2018-03-01T10:15:03.897Z,99802.50
2018-03-01T10:16:06.389Z,99805.17
2018-03-01T10:17:08.877Z,99800.32
2018-03-01T10:18:11.344Z,99799.22
2018-03-01T10:19:13.862Z,99796.41
2018-03-01T10:20:16.351Z,99802.13
2018-03-01T10:21:19.068Z,99804.18
2018-03-01T10:22:21.542Z,99808.23
2018-03-01T10:23:24.036Z,99803.98
2018-03-01T10:24:26.534Z,99816.42
2018-03-01T10:25:29.008Z,99821.20
2018-03-01T10:26:31.518Z,99814.98
2018-03-01T10:27:34.011Z,99810.00
2018-03-01T10:28:39.266Z,99802.50
2018-03-01T10:29:47.757Z,99809.70
2018-03-01T10:30:50.286Z,99803.98
2018-03-01T10:31:52.762Z,99818.42
2018-03-01T10:32:55.249Z,99800.53
2018-03-01T10:33:57.743Z,99799.48
2018-03-01T10:35:00.228Z,99799.09
2018-03-01T10:36:02.702Z,99800.86
2018-03-01T10:37:05.209Z,99798.12
2018-03-01T10:38:07.697Z,99783.61
2018-03-01T10:39:10.182Z,99794.08
2018-03-01T10:40:12.676Z,99792.61
2018-03-01T10:41:15.174Z,99784.71
2018-03-01T10:42:17.658Z,99784.08
2018-03-01T10:43:20.127Z,99783.77
2018-03-01T10:44:22.599Z,99774.84
2018-03-01T10:45:25.088Z,99771.23
2018-03-01T10:46:27.573Z,99770.33
2018-03-01T10:47:30.062Z,99766.14
2018-03-01T10:48:32.549Z,99765.17
2018-03-01T10:49:35.018Z,99757.92
2018-03-01T10:50:37.517Z,99755.81
2018-03-01T10:51:39.989Z,99757.13
2018-03-01T10:52:42.506Z,99759.63
2018-03-01T10:53:44.979Z,99755.31
2018-03-01T10:54:47.475Z,99757.05
2018-03-01T10:55:49.977Z,99757.47
2018-03-01T10:56:52.471Z,99752.58
2018-03-01T10:57:54.970Z,99759.90
2018-03-01T10:58:57.434Z,99752.87
2018-03-01T10:59:59.921Z,99753.67
2018-03-01T11:01:02.438Z,99755.05
2018-03-01T11:02:04.935Z,99756.87
2018-03-01T11:03:07.408Z,99757.11
2018-03-01T11:04:09.884Z,99756.48
2018-03-01T11:05:12.694Z,99756.81
2018-03-01T11:06:15.320Z,99747.38
2018-03-01T11:07:18.015Z,99753.04
2018-03-01T11:08:20.497Z,99747.72
2018-03-01T11:09:22.971Z,99742.91
2018-03-01T11:10:25.455Z,99738.56
2018-03-01T11:11:27.969Z,99738.39
2018-03-01T11:12:30.459Z,99738.73
2018-03-01T11:13:32.935Z,99737.13
2018-03-01T11:14:35.425Z,99727.63
2018-03-01T11:15:37.902Z,99732.42
2018-03-01T11:16:40.388Z,99726.87
2018-03-01T11:17:42.855Z,99725.43
2018-03-01T11:18:45.461Z,99721.08
2018-03-01T11:19:48.012Z,99718.98
2018-03-01T11:20:50.495Z,99721.32
2018-03-01T11:21:53.009Z,99722.86
2018-03-01T11:22:55.499Z,99716.34
2018-03-01T11:23:57.977Z,99712.33
2018-03-01T11:25:00.473Z,99706.38
2018-03-01T11:26:02.958Z,99704.14
2018-03-01T11:27:05.444Z,99701.06
2018-03-01T11:28:07.922Z,99695.66
2018-03-01T11:29:11.156Z,99689.07
2018-03-01T11:30:13.642Z,99687.17
2018-03-01T11:31:16.202Z,99684.36
2018-03-01T11:32:18.701Z,99680.34
2018-03-01T11:33:21.167Z,99683.73
2018-03-01T11:34:23.651Z,99685.03
2018-03-01T11:35:26.130Z,99679.48
2018-03-01T11:36:28.600Z,99673.30
2018-03-01T11:37:31.101Z,99677.91
2018-03-01T11:38:33.713Z,99680.19
2018-03-01T11:39:36.184Z,99673.10
2018-03-01T11:40:38.670Z,99664.21
2018-03-01T11:41:41.177Z,99672.37
2018-03-01T11:42:43.664Z,99663.11
2018-03-01T11:43:46.145Z,99664.81
2018-03-01T11:44:48.636Z,99669.26
2018-03-01T11:45:51.134Z,99662.58
2018-03-01T11:46:53.607Z,99658.80
2018-03-01T11:47:56.109Z,99658.73
2018-03-01T11:48:58.593Z,99661.07
2018-03-01T11:50:01.060Z,99664.14
2018-03-01T11:51:03.554Z,99657.06
2018-03-01T11:52:06.051Z,99649.55
2018-03-01T11:53:08.568Z,99653.02
2018-03-01T11:54:11.040Z,99647.70
2018-03-01T11:55:13.533Z,99653.92
2018-03-01T11:56:16.022Z,99648.04
2018-03-01T11:57:18.545Z,99655.79
2018-03-01T11:58:21.042Z,99656.13
2018-03-01T11:59:23.562Z,99647.44
2018-03-01T12:00:26.035Z,99640.75